sensor_id;sensor_type;location;lat;lon;timestamp;temperature;humidity
53368;DHT22;39271;45.618;20.024;2022-08-01T04:23:26;435.20;2227.20
53368;DHT22;39271;45.618;20.024;2022-08-01T04:25:58;435.20;2227.20
53368;DHT22;39271;45.618;20.024;2022-08-01T04:28:37;435.20;2227.20
53368;DHT22;39271;45.618;20.024;2022-08-01T04:31:07;435.40;2227.20
53368;DHT22;39271;45.618;20.024;2022-08-01T04:33:35;435.40;2227.20
53368;DHT22;39271;45.618;20.024;2022-08-01T04:36:07;435.50;2227.20
53368;DHT22;39271;45.618;20.024;2022-08-01T04:38:42;435.50;2227.20
53368;DHT22;39271;45.618;20.024;2022-08-01T04:41:12;435.60;2227.20
53368;DHT22;39271;45.618;20.024;2022-08-01T04:47:02;435.80;2227.20
53368;DHT22;39271;45.618;20.024;2022-08-01T04:49:58;435.80;2227.20
53368;DHT22;39271;45.618;20.024;2022-08-01T04:52:54;435.80;2252.80
53368;DHT22;39271;45.618;20.024;2022-08-01T04:55:21;435.90;2227.20
53368;DHT22;39271;45.618;20.024;2022-08-01T04:57:50;436.00;2227.20
53368;DHT22;39271;45.618;20.024;2022-08-01T05:00:34;460.80;2227.20
53368;DHT22;39271;45.618;20.024;2022-08-01T05:06:55;460.80;2227.20
53368;DHT22;39271;45.618;20.024;2022-08-01T05:16:08;461.20;2176.00
53368;DHT22;39271;45.618;20.024;2022-08-01T05:19:18;461.40;2176.00
53368;DHT22;39271;45.618;20.024;2022-08-01T05:21:48;461.60;2176.00
53368;DHT22;39271;45.618;20.024;2022-08-01T05:24:17;461.70;2150.40
53368;DHT22;39271;45.618;20.024;2022-08-01T05:26:47;486.40;2124.80
53368;DHT22;39271;45.618;20.024;2022-08-01T05:29:15;486.50;2099.20
53368;DHT22;39271;45.618;20.024;2022-08-01T05:31:43;486.70;2073.60
53368;DHT22;39271;45.618;20.024;2022-08-01T05:34:10;486.80;2048.00
53368;DHT22;39271;45.618;20.024;2022-08-01T05:36:36;487.00;2048.00
53368;DHT22;39271;45.618;20.024;2022-08-01T05:39:07;487.10;2022.40
53368;DHT22;39271;45.618;20.024;2022-08-01T05:41:42;487.20;2022.40
53368;DHT22;39271;45.618;20.024;2022-08-01T05:44:09;487.30;1996.80
53368;DHT22;39271;45.618;20.024;2022-08-01T05:46:46;512.00;1996.80
53368;DHT22;39271;45.618;20.024;2022-08-01T05:49:23;512.30;1971.20
53368;DHT22;39271;45.618;20.024;2022-08-01T05:52:01;512.50;1920.00
53368;DHT22;39271;45.618;20.024;2022-08-01T05:54:47;512.60;1920.00
53368;DHT22;39271;45.618;20.024;2022-08-01T05:57:42;512.60;1920.00
53368;DHT22;39271;45.618;20.024;2022-08-01T06:00:15;512.70;1894.40
53368;DHT22;39271;45.618;20.024;2022-08-01T06:02:44;537.60;1920.00
53368;DHT22;39271;45.618;20.024;2022-08-01T06:05:40;537.60;1920.00
53368;DHT22;39271;45.618;20.024;2022-08-01T06:08:06;537.70;1894.40
53368;DHT22;39271;45.618;20.024;2022-08-01T06:10:48;537.70;1894.40
53368;DHT22;39271;45.618;20.024;2022-08-01T06:13:35;537.90;1868.80
53368;DHT22;39271;45.618;20.024;2022-08-01T06:20:01;538.00;1868.80
53368;DHT22;39271;45.618;20.024;2022-08-01T06:26:18;538.20;1843.20
53368;DHT22;39271;45.618;20.024;2022-08-01T06:28:44;538.20;1843.20
53368;DHT22;39271;45.618;20.024;2022-08-01T06:31:16;538.30;1843.20
53368;DHT22;39271;45.618;20.024;2022-08-01T06:33:46;538.50;1843.20
53368;DHT22;39271;45.618;20.024;2022-08-01T06:36:21;538.50;1817.60
53368;DHT22;39271;45.618;20.024;2022-08-01T06:45:49;563.50;1868.80
53368;DHT22;39271;45.618;20.024;2022-08-01T06:48:21;563.60;1817.60
53368;DHT22;39271;45.618;20.024;2022-08-01T06:50:47;563.80;1817.60
53368;DHT22;39271;45.618;20.024;2022-08-01T06:53:13;563.80;1817.60
53368;DHT22;39271;45.618;20.024;2022-08-01T06:55:39;563.80;1817.60
53368;DHT22;39271;45.618;20.024;2022-08-01T06:58:14;563.90;1792.00
53368;DHT22;39271;45.618;20.024;2022-08-01T07:00:44;564.00;1766.40
53368;DHT22;39271;45.618;20.024;2022-08-01T07:03:10;588.80;1792.00
53368;DHT22;39271;45.618;20.024;2022-08-01T07:05:35;588.90;1766.40
53368;DHT22;39271;45.618;20.024;2022-08-01T07:08:02;588.90;1740.80
53368;DHT22;39271;45.618;20.024;2022-08-01T07:10:28;589.10;1740.80
53368;DHT22;39271;45.618;20.024;2022-08-01T07:12:54;589.00;1766.40
53368;DHT22;39271;45.618;20.024;2022-08-01T07:15:20;589.20;1766.40
53368;DHT22;39271;45.618;20.024;2022-08-01T07:17:51;589.30;1740.80
53368;DHT22;39271;45.618;20.024;2022-08-01T07:20:18;589.30;1715.20
53368;DHT22;39271;45.618;20.024;2022-08-01T07:22:44;589.40;1715.20
53368;DHT22;39271;45.618;20.024;2022-08-01T07:25:51;589.40;1715.20
53368;DHT22;39271;45.618;20.024;2022-08-01T07:28:24;589.50;1715.20
53368;DHT22;39271;45.618;20.024;2022-08-01T07:30:54;589.60;1715.20
53368;DHT22;39271;45.618;20.024;2022-08-01T07:33:20;614.40;1689.60
53368;DHT22;39271;45.618;20.024;2022-08-01T07:35:48;614.40;1689.60
53368;DHT22;39271;45.618;20.024;2022-08-01T07:38:14;614.40;1664.00
53368;DHT22;39271;45.618;20.024;2022-08-01T07:40:42;614.50;1664.00
53368;DHT22;39271;45.618;20.024;2022-08-01T07:43:09;614.50;1664.00
53368;DHT22;39271;45.618;20.024;2022-08-01T07:45:35;614.70;1612.80
53368;DHT22;39271;45.618;20.024;2022-08-01T07:48:05;614.80;1587.20
53368;DHT22;39271;45.618;20.024;2022-08-01T07:50:31;614.80;1612.80
53368;DHT22;39271;45.618;20.024;2022-08-01T07:52:57;615.00;1587.20
53368;DHT22;39271;45.618;20.024;2022-08-01T07:55:23;615.00;1561.60
53368;DHT22;39271;45.618;20.024;2022-08-01T07:57:49;615.10;1561.60
53368;DHT22;39271;45.618;20.024;2022-08-01T08:00:26;615.10;1587.20
53368;DHT22;39271;45.618;20.024;2022-08-01T08:02:54;615.30;1561.60
53368;DHT22;39271;45.618;20.024;2022-08-01T08:05:20;615.30;1587.20
53368;DHT22;39271;45.618;20.024;2022-08-01T08:07:46;640.10;1561.60
53368;DHT22;39271;45.618;20.024;2022-08-01T08:10:11;640.20;1561.60
53368;DHT22;39271;45.618;20.024;2022-08-01T08:12:49;640.20;1484.80
53368;DHT22;39271;45.618;20.024;2022-08-01T08:15:15;640.40;1484.80
53368;DHT22;39271;45.618;20.024;2022-08-01T08:17:41;640.40;1459.20
53368;DHT22;39271;45.618;20.024;2022-08-01T08:20:07;640.40;1459.20
53368;DHT22;39271;45.618;20.024;2022-08-01T08:22:34;640.90;1433.60
53368;DHT22;39271;45.618;20.024;2022-08-01T08:25:00;640.50;1459.20
53368;DHT22;39271;45.618;20.024;2022-08-01T08:27:28;640.60;1484.80
53368;DHT22;39271;45.618;20.024;2022-08-01T08:30:06;640.80;1484.80
53368;DHT22;39271;45.618;20.024;2022-08-01T08:32:33;640.80;1484.80
53368;DHT22;39271;45.618;20.024;2022-08-01T08:35:03;665.60;1536.00
53368;DHT22;39271;45.618;20.024;2022-08-01T08:37:44;665.60;1510.40
53368;DHT22;39271;45.618;20.024;2022-08-01T10:35:52;717.40;1280.00
53368;DHT22;39271;45.618;20.024;2022-08-01T10:38:25;717.40;1305.60
53368;DHT22;39271;45.618;20.024;2022-08-01T10:40:52;717.40;1203.20
53368;DHT22;39271;45.618;20.024;2022-08-01T10:43:21;717.60;1305.60
53368;DHT22;39271;45.618;20.024;2022-08-01T10:45:50;717.70;1254.40
53368;DHT22;39271;45.618;20.024;2022-08-01T10:48:29;742.40;1280.00
53368;DHT22;39271;45.618;20.024;2022-08-01T10:51:14;742.50;1254.40
53368;DHT22;39271;45.618;20.024;2022-08-01T10:57:08;742.70;1254.40
53368;DHT22;39271;45.618;20.024;2022-08-01T10:59:59;742.70;1280.00
53368;DHT22;39271;45.618;20.024;2022-08-01T11:08:26;742.80;1228.80
53368;DHT22;39271;45.618;20.024;2022-08-01T11:14:02;743.10;1177.60
53368;DHT22;39271;45.618;20.024;2022-08-01T11:16:46;743.00;1203.20
53368;DHT22;39271;45.618;20.024;2022-08-01T11:19:12;743.20;1203.20
53368;DHT22;39271;45.618;20.024;2022-08-01T11:27:28;743.30;1203.20
53368;DHT22;39271;45.618;20.024;2022-08-01T11:32:47;768.20;1203.20
53368;DHT22;39271;45.618;20.024;2022-08-01T11:35:16;768.30;1152.00
53368;DHT22;39271;45.618;20.024;2022-08-01T11:37:42;768.40;1152.00
53368;DHT22;39271;45.618;20.024;2022-08-01T11:43:36;768.10;1177.60
53368;DHT22;39271;45.618;20.024;2022-08-01T11:45:57;743.00;1203.20
53368;DHT22;39271;45.618;20.024;2022-08-01T11:48:26;743.30;1152.00
53368;DHT22;39271;45.618;20.024;2022-08-01T11:50:57;768.20;1203.20
53368;DHT22;39271;45.618;20.024;2022-08-01T11:53:26;768.50;1177.60
53368;DHT22;39271;45.618;20.024;2022-08-01T11:55:53;768.70;1203.20
53368;DHT22;39271;45.618;20.024;2022-08-01T11:58:58;793.60;1126.40
53368;DHT22;39271;45.618;20.024;2022-08-01T12:01:28;768.80;1126.40
53368;DHT22;39271;45.618;20.024;2022-08-01T12:03:59;768.50;1177.60
53368;DHT22;39271;45.618;20.024;2022-08-01T12:06:29;768.50;1152.00
53368;DHT22;39271;45.618;20.024;2022-08-01T12:09:23;768.70;1152.00
53368;DHT22;39271;45.618;20.024;2022-08-01T12:11:49;768.70;1152.00
53368;DHT22;39271;45.618;20.024;2022-08-01T12:14:20;768.60;1100.80
53368;DHT22;39271;45.618;20.024;2022-08-01T12:16:51;768.50;1152.00
53368;DHT22;39271;45.618;20.024;2022-08-01T12:19:24;768.40;1177.60
53368;DHT22;39271;45.618;20.024;2022-08-01T12:22:10;768.60;1152.00
53368;DHT22;39271;45.618;20.024;2022-08-01T12:24:38;768.40;1126.40
53368;DHT22;39271;45.618;20.024;2022-08-01T12:27:05;768.30;1177.60
53368;DHT22;39271;45.618;20.024;2022-08-01T12:29:42;768.40;1152.00
53368;DHT22;39271;45.618;20.024;2022-08-01T12:32:33;768.60;1126.40
53368;DHT22;39271;45.618;20.024;2022-08-01T12:35:12;768.60;1126.40
53368;DHT22;39271;45.618;20.024;2022-08-01T12:37:44;768.50;1100.80
53368;DHT22;39271;45.618;20.024;2022-08-01T12:40:32;768.30;1126.40
53368;DHT22;39271;45.618;20.024;2022-08-01T12:43:06;743.20;1152.00
53368;DHT22;39271;45.618;20.024;2022-08-01T12:45:38;743.00;1177.60
53368;DHT22;39271;45.618;20.024;2022-08-01T12:48:15;742.90;1177.60
53368;DHT22;39271;45.618;20.024;2022-08-01T12:50:47;742.90;1177.60
53368;DHT22;39271;45.618;20.024;2022-08-01T12:53:14;742.70;1203.20
53368;DHT22;39271;45.618;20.024;2022-08-01T12:55:54;742.60;1203.20
53368;DHT22;39271;45.618;20.024;2022-08-01T12:58:22;742.60;1177.60
53368;DHT22;39271;45.618;20.024;2022-08-01T13:04:10;743.20;1100.80
53368;DHT22;39271;45.618;20.024;2022-08-01T13:06:44;743.20;1100.80
53368;DHT22;39271;45.618;20.024;2022-08-01T13:09:25;743.20;1100.80
53368;DHT22;39271;45.618;20.024;2022-08-01T13:12:07;768.10;1100.80
53368;DHT22;39271;45.618;20.024;2022-08-01T13:14:33;768.30;1100.80
53368;DHT22;39271;45.618;20.024;2022-08-01T13:16:59;768.40;1075.20
53368;DHT22;39271;45.618;20.024;2022-08-01T13:19:49;768.40;1126.40
53368;DHT22;39271;45.618;20.024;2022-08-01T13:22:17;768.70;1075.20
53368;DHT22;39271;45.618;20.024;2022-08-01T13:24:43;768.80;1049.60
53368;DHT22;39271;45.618;20.024;2022-08-01T13:27:20;768.60;1075.20
53368;DHT22;39271;45.618;20.024;2022-08-01T13:29:50;768.60;1100.80
53368;DHT22;39271;45.618;20.024;2022-08-01T13:32:19;768.60;1100.80
53368;DHT22;39271;45.618;20.024;2022-08-01T13:34:49;768.60;1100.80
53368;DHT22;39271;45.618;20.024;2022-08-01T13:37:28;768.50;1075.20
53368;DHT22;39271;45.618;20.024;2022-08-01T13:39:54;768.50;1075.20
53368;DHT22;39271;45.618;20.024;2022-08-01T19:10:26;691.60;1331.20
53368;DHT22;39271;45.618;20.024;2022-08-01T19:13:06;691.40;1305.60
53368;DHT22;39271;45.618;20.024;2022-08-01T19:19:14;691.20;1356.80
53368;DHT22;39271;45.618;20.024;2022-08-01T19:22:02;666.50;1331.20
53368;DHT22;39271;45.618;20.024;2022-08-01T19:24:52;666.50;1382.40
53368;DHT22;39271;45.618;20.024;2022-08-01T19:27:48;666.40;1356.80
53368;DHT22;39271;45.618;20.024;2022-08-01T19:39:30;666.40;1382.40
53368;DHT22;39271;45.618;20.024;2022-08-01T19:52:18;666.20;1408.00
53368;DHT22;39271;45.618;20.024;2022-08-01T19:54:53;666.00;1382.40
53368;DHT22;39271;45.618;20.024;2022-08-01T22:40:05;588.90;1766.40
53368;DHT22;39271;45.618;20.024;2022-08-01T22:56:30;564.10;1817.60
53368;DHT22;39271;45.618;20.024;2022-08-01T23:10:12;563.80;1817.60
53368;DHT22;39271;45.618;20.024;2022-08-01T23:44:11;563.20;1843.20
53368;DHT22;39271;45.618;20.024;2022-08-01T23:47:36;563.20;1843.20
